createdAt,value
2023-04-04T00:02:01.012Z,101225.00
2023-04-04T00:04:28.204Z,101233.47
2023-04-04T00:06:55.376Z,101225.91
2023-04-04T00:09:22.823Z,101224.25
2023-04-04T00:11:50.301Z,101212.31
2023-04-04T00:14:17.342Z,101213.59
2023-04-04T00:16:44.271Z,101216.75
2023-04-04T00:19:14.431Z,101216.16
2023-04-04T00:21:41.312Z,101217.66
2023-04-04T00:24:08.609Z,101213.09
2023-04-04T00:26:35.714Z,101213.31
2023-04-04T00:29:02.749Z,101205.34
2023-04-04T00:31:29.831Z,101211.28
2023-04-04T00:33:56.675Z,101211.91
2023-04-04T00:36:24.045Z,101200.69
2023-04-04T00:38:51.118Z,101211.84
2023-04-04T00:41:18.288Z,101211.00
2023-04-04T00:43:45.572Z,101199.75
2023-04-04T00:46:15.111Z,101200.44
2023-04-04T00:48:43.307Z,101196.53
2023-04-04T00:51:10.258Z,101199.59
2023-04-04T00:53:38.286Z,101201.66
2023-04-04T00:56:05.641Z,101185.38
2023-04-04T00:58:32.691Z,101192.81
2023-04-04T01:01:01.501Z,101189.75
2023-04-04T01:03:29.512Z,101195.66
2023-04-04T01:05:56.854Z,101192.38
2023-04-04T01:08:27.238Z,101206.78
2023-04-04T01:10:54.247Z,101200.69
2023-04-04T01:13:21.980Z,101203.47
2023-04-04T01:15:49.302Z,101205.47
2023-04-04T01:18:20.566Z,101197.91
2023-04-04T01:21:13.293Z,101199.03
2023-04-04T01:24:05.229Z,101201.31
2023-04-04T01:26:32.398Z,101210.50
2023-04-04T01:29:00.124Z,101206.56
2023-04-04T01:31:58.782Z,101201.72
2023-04-04T01:34:47.286Z,101197.97
2023-04-04T01:37:51.949Z,101203.69
2023-04-04T01:40:25.942Z,101201.38
2023-04-04T01:42:53.799Z,101199.22
2023-04-04T01:45:24.597Z,101201.38
2023-04-04T01:47:52.102Z,101208.28
2023-04-04T01:50:20.505Z,101204.66
2023-04-04T01:52:47.717Z,101203.16
2023-04-04T01:55:14.724Z,101201.13
2023-04-04T01:57:41.790Z,101194.84
2023-04-04T02:00:09.420Z,101197.22
2023-04-04T02:02:36.702Z,101196.63
2023-04-04T02:05:04.193Z,101189.56
2023-04-04T02:07:31.146Z,101191.31
2023-04-04T02:09:58.653Z,101196.31
2023-04-04T02:12:25.585Z,101189.69
2023-04-04T02:14:53.613Z,101197.16
2023-04-04T02:17:20.496Z,101193.69
2023-04-04T02:19:47.366Z,101188.47
2023-04-04T02:22:14.405Z,101197.63
2023-04-04T02:24:44.437Z,101190.38
2023-04-04T02:27:11.302Z,101185.34
2023-04-04T02:29:38.179Z,101184.22
2023-04-04T02:32:05.289Z,101188.09
2023-04-04T02:34:32.815Z,101193.06
2023-04-04T02:36:59.765Z,101198.81
2023-04-04T02:39:27.093Z,101181.28
2023-04-04T02:41:53.959Z,101187.25
2023-04-04T02:44:20.899Z,101183.91
2023-04-04T02:46:48.380Z,101183.16
2023-04-04T02:49:15.502Z,101180.97
2023-04-04T02:51:42.551Z,101186.31
2023-04-04T02:54:10.092Z,101197.91
2023-04-04T02:56:38.629Z,101199.91
2023-04-04T02:59:05.867Z,101191.41
2023-04-04T03:01:32.893Z,101186.47
2023-04-04T03:04:00.002Z,101190.00
2023-04-04T03:06:26.986Z,101191.50
2023-04-04T03:08:53.874Z,101191.53
2023-04-04T03:11:21.661Z,101197.34
2023-04-04T03:13:51.149Z,101194.28
2023-04-04T03:16:19.827Z,101197.22
2023-04-04T03:18:47.066Z,101193.97
2023-04-04T03:21:14.064Z,101194.03
2023-04-04T03:23:42.771Z,101201.28
2023-04-04T03:26:09.783Z,101221.41
2023-04-04T03:28:38.116Z,101235.03
2023-04-04T03:31:06.273Z,101242.00
2023-04-04T03:33:37.867Z,101252.13
2023-04-04T03:36:14.063Z,101249.72
2023-04-04T03:38:41.336Z,101247.88
2023-04-04T03:41:09.338Z,101259.19
2023-04-04T03:43:36.262Z,101255.84
2023-04-04T03:46:05.811Z,101255.16
2023-04-04T03:48:33.695Z,101266.81
2023-04-04T03:51:03.448Z,101259.53
2023-04-04T03:53:30.579Z,101262.84
2023-04-04T03:55:57.843Z,101264.34
2023-04-04T03:58:24.805Z,101259.63
2023-04-04T04:00:51.761Z,101260.31
2023-04-04T04:03:18.740Z,101263.78
2023-04-04T04:05:46.195Z,101263.00
2023-04-04T04:08:13.632Z,101269.28
2023-04-04T04:10:40.750Z,101270.13
2023-04-04T04:13:07.798Z,101272.59
2023-04-04T04:15:34.752Z,101270.22
2023-04-04T04:18:01.750Z,101272.16
2023-04-04T04:20:28.672Z,101273.78
2023-04-04T04:22:55.718Z,101282.44
2023-04-04T04:25:23.050Z,101276.56
2023-04-04T04:27:50.031Z,101269.63
2023-04-04T04:30:16.942Z,101268.78
2023-04-04T04:32:44.022Z,101270.91
2023-04-04T04:35:10.920Z,101262.53
2023-04-04T04:37:38.404Z,101267.63
2023-04-04T04:40:06.518Z,101268.50
2023-04-04T04:42:33.423Z,101268.00
2023-04-04T04:45:00.528Z,101284.25
2023-04-04T04:47:27.682Z,101273.59
2023-04-04T04:49:54.626Z,101284.34
2023-04-04T04:52:22.713Z,101274.28
2023-04-04T04:54:50.960Z,101274.28
2023-04-04T04:57:18.694Z,101273.09
2023-04-04T04:59:45.688Z,101268.16
2023-04-04T05:02:12.578Z,101268.47
2023-04-04T05:04:41.229Z,101271.44
2023-04-04T05:07:08.356Z,101276.09
2023-04-04T05:09:35.735Z,101283.97
2023-04-04T05:12:04.159Z,101289.31
2023-04-04T05:14:31.221Z,101287.81
2023-04-04T05:16:58.179Z,101284.97
2023-04-04T05:19:25.124Z,101287.41
2023-04-04T05:21:52.202Z,101278.25
2023-04-04T05:24:22.835Z,101270.03
2023-04-04T05:26:49.872Z,101274.44
2023-04-04T05:29:16.958Z,101285.00
2023-04-04T05:31:43.897Z,101286.31
2023-04-04T05:34:10.907Z,101283.75
2023-04-04T05:36:37.898Z,101279.09
2023-04-04T05:39:04.986Z,101279.63
2023-04-04T05:41:32.234Z,101278.13
2023-04-04T05:43:59.660Z,101282.16
2023-04-04T05:46:26.995Z,101275.88
2023-04-04T05:48:53.964Z,101273.53
2023-04-04T05:51:21.045Z,101276.97
2023-04-04T05:53:49.118Z,101273.97
2023-04-04T05:56:16.644Z,101268.13
2023-04-04T05:58:45.078Z,101260.91
2023-04-04T06:01:12.564Z,101251.63
2023-04-04T06:03:39.763Z,101258.28
2023-04-04T06:06:07.491Z,101251.06
2023-04-04T06:08:50.303Z,101249.78
2023-04-04T06:11:22.495Z,101263.56
2023-04-04T06:13:51.130Z,101253.81
2023-04-04T06:16:18.068Z,101259.44
2023-04-04T06:18:45.024Z,101245.09
2023-04-04T06:21:13.226Z,101242.22
2023-04-04T06:23:40.918Z,101246.41
2023-04-04T06:26:08.386Z,101242.34
2023-04-04T06:28:35.415Z,101245.28
2023-04-04T06:31:07.389Z,101249.78
2023-04-04T06:33:34.338Z,101240.75
2023-04-04T06:36:01.364Z,101228.13
2023-04-04T06:38:29.405Z,101213.56
2023-04-04T06:40:56.355Z,101210.84
2023-04-04T06:43:24.042Z,101204.63
2023-04-04T06:45:51.422Z,101202.44
2023-04-04T06:48:18.715Z,101212.69
2023-04-04T06:50:46.172Z,101195.25
2023-04-04T06:53:14.493Z,101197.31
2023-04-04T06:55:41.660Z,101184.75
2023-04-04T06:58:08.821Z,101179.09
2023-04-04T07:00:36.123Z,101175.88
2023-04-04T07:03:03.104Z,101167.06
2023-04-04T07:05:32.200Z,101157.28
2023-04-04T07:07:59.241Z,101157.69
2023-04-04T07:10:27.147Z,101147.00
2023-04-04T07:12:54.170Z,101129.09
2023-04-04T07:15:21.193Z,101127.69
2023-04-04T07:17:48.243Z,101121.44
2023-04-04T07:20:15.646Z,101111.91
2023-04-04T07:22:44.360Z,101111.69
2023-04-04T07:25:13.205Z,101107.53
2023-04-04T07:27:43.186Z,101099.13
2023-04-04T07:30:11.172Z,101095.16
2023-04-04T07:32:38.356Z,101091.88
2023-04-04T07:35:09.709Z,101089.94
2023-04-04T07:37:38.180Z,101087.53
2023-04-04T07:40:08.737Z,101083.16
2023-04-04T07:42:35.900Z,101079.69
2023-04-04T07:45:03.070Z,101065.41
2023-04-04T07:47:30.125Z,101063.38
2023-04-04T07:49:57.114Z,101064.56
2023-04-04T07:52:24.113Z,101054.22
2023-04-04T07:54:52.359Z,101061.91
2023-04-04T07:57:19.243Z,101061.06
2023-04-04T07:59:46.206Z,101033.25
2023-04-04T08:02:13.409Z,101030.56
2023-04-04T08:04:40.518Z,101035.13
2023-04-04T08:07:07.484Z,101039.78
2023-04-04T08:09:36.311Z,101033.81
2023-04-04T08:12:06.446Z,101035.47
2023-04-04T08:14:33.820Z,101026.34
2023-04-04T08:17:01.403Z,101034.53
2023-04-04T08:19:28.327Z,101031.91
2023-04-04T08:21:55.813Z,101020.44
2023-04-04T08:24:22.889Z,101007.38
2023-04-04T08:26:58.201Z,101006.63
2023-04-04T08:29:32.787Z,101004.78
2023-04-04T08:32:00.612Z,101003.97
2023-04-04T08:34:28.512Z,101001.59
2023-04-04T08:36:56.030Z,101005.44
2023-04-04T08:39:22.923Z,100994.78
2023-04-04T08:42:02.982Z,100989.56
2023-04-04T08:44:31.552Z,100983.94
2023-04-04T08:47:05.662Z,100980.53
2023-04-04T08:49:38.307Z,100985.84
2023-04-04T08:52:07.456Z,100975.72
2023-04-04T08:54:35.956Z,100970.38
2023-04-04T08:57:04.098Z,100978.41
2023-04-04T08:59:31.641Z,100965.34
2023-04-04T09:02:15.768Z,100962.94
2023-04-04T09:04:51.380Z,100965.72
2023-04-04T09:07:28.263Z,100980.16
2023-04-04T09:09:55.889Z,100972.59
2023-04-04T09:12:23.549Z,100954.84
2023-04-04T09:14:52.231Z,100969.84
2023-04-04T09:17:19.418Z,100950.13
2023-04-04T09:19:46.322Z,100954.56
2023-04-04T09:22:17.342Z,100960.00
2023-04-04T09:24:48.406Z,100968.44
2023-04-04T09:27:16.472Z,100962.75
2023-04-04T09:29:43.398Z,100955.69
2023-04-04T09:32:16.015Z,100960.84
2023-04-04T09:34:45.333Z,100954.41
2023-04-04T09:37:17.131Z,100956.59
2023-04-04T09:39:44.858Z,100944.56
2023-04-04T09:42:12.435Z,100949.78
2023-04-04T09:44:39.665Z,100958.78
2023-04-04T09:47:31.517Z,100948.50
2023-04-04T09:50:03.930Z,100931.22
2023-04-04T09:52:37.639Z,100932.59
2023-04-04T09:55:06.680Z,100939.16
2023-04-04T09:57:39.421Z,100942.00
2023-04-04T10:00:09.334Z,100959.31
2023-04-04T10:02:47.023Z,100939.09
2023-04-04T10:05:14.811Z,100928.28
2023-04-04T10:07:43.811Z,100940.88
2023-04-04T10:10:11.133Z,100951.84
2023-04-04T10:12:38.839Z,100931.59
2023-04-04T10:15:06.570Z,100935.94
2023-04-04T10:17:41.812Z,100937.47
2023-04-04T10:20:10.435Z,100938.41
2023-04-04T10:22:38.957Z,100937.38
2023-04-04T10:25:07.890Z,100931.25
2023-04-04T10:27:35.161Z,100939.34
2023-04-04T10:30:03.322Z,100939.59
2023-04-04T10:33:02.637Z,100929.91
2023-04-04T10:35:31.379Z,100933.47
2023-04-04T10:38:03.446Z,100933.25
2023-04-04T10:40:40.351Z,100932.19
2023-04-04T10:43:07.797Z,100935.09
2023-04-04T10:45:38.727Z,100925.81
2023-04-04T10:48:10.537Z,100923.72
2023-04-04T10:50:39.371Z,100926.19
2023-04-04T10:53:08.141Z,100948.72
2023-04-04T10:55:38.613Z,100941.81
2023-04-04T10:58:08.380Z,100934.91
2023-04-04T11:00:51.886Z,100921.25
2023-04-04T11:03:19.009Z,100924.13
2023-04-04T11:05:49.170Z,100922.25
2023-04-04T11:08:27.877Z,100922.78
2023-04-04T11:10:57.337Z,100935.06
2023-04-04T11:13:35.610Z,100923.13
2023-04-04T11:16:16.306Z,100912.59
2023-04-04T11:18:43.774Z,100917.19
2023-04-04T11:21:24.704Z,100901.09
2023-04-04T11:23:54.587Z,100901.72
2023-04-04T11:26:32.918Z,100910.19
2023-04-04T11:29:02.853Z,100916.38
2023-04-04T11:31:40.644Z,100916.28
2023-04-04T11:34:13.178Z,100902.44
2023-04-04T11:36:40.738Z,100913.22
2023-04-04T11:39:31.039Z,100891.31
2023-04-04T11:42:14.081Z,100903.41
2023-04-04T11:44:51.168Z,100909.34
2023-04-04T11:47:24.338Z,100900.00
2023-04-04T11:49:53.719Z,100891.66
2023-04-04T11:52:21.262Z,100888.97
2023-04-04T11:54:49.121Z,100895.22
2023-04-04T11:57:21.068Z,100879.41
2023-04-04T11:59:50.531Z,100887.91
2023-04-04T12:02:27.553Z,100877.34
2023-04-04T12:04:55.438Z,100857.69
2023-04-04T12:07:27.259Z,100871.56
2023-04-04T12:09:56.193Z,100874.09
2023-04-04T12:12:24.444Z,100871.66
2023-04-04T12:14:56.328Z,100879.22
2023-04-04T12:17:30.379Z,100872.28
2023-04-04T12:19:57.764Z,100864.59
2023-04-04T12:22:24.985Z,100867.09
2023-04-04T12:24:52.006Z,100857.28
2023-04-04T12:27:18.991Z,100883.84
2023-04-04T12:29:47.580Z,100859.94
2023-04-04T12:32:15.155Z,100857.69
2023-04-04T12:34:48.963Z,100848.75
2023-04-04T12:37:19.487Z,100843.91
2023-04-04T12:39:51.120Z,100834.88
2023-04-04T12:42:25.909Z,100833.66
2023-04-04T12:44:54.186Z,100845.19
2023-04-04T12:47:24.082Z,100846.28
2023-04-04T12:49:56.425Z,100831.38
2023-04-04T12:52:32.393Z,100843.09
2023-04-04T12:55:10.217Z,100824.66
2023-04-04T12:57:39.987Z,100824.47
2023-04-04T13:00:09.173Z,100810.19
2023-04-04T13:02:38.557Z,100816.06
2023-04-04T13:05:07.451Z,100821.41
2023-04-04T13:07:43.264Z,100808.88
2023-04-04T13:10:17.349Z,100814.44
2023-04-04T13:13:00.336Z,100805.59
2023-04-04T13:15:51.415Z,100804.50
2023-04-04T13:18:25.012Z,100790.63
2023-04-04T13:20:53.928Z,100802.88
2023-04-04T13:23:22.100Z,100800.66
2023-04-04T13:25:49.166Z,100789.44
2023-04-04T13:28:16.209Z,100787.47
2023-04-04T13:30:49.692Z,100798.47
2023-04-04T13:33:22.231Z,100788.75
2023-04-04T13:35:51.082Z,100801.56
2023-04-04T13:38:18.189Z,100790.94
2023-04-04T13:40:45.657Z,100798.03
2023-04-04T13:43:14.970Z,100784.38
2023-04-04T13:45:43.321Z,100783.66
2023-04-04T13:48:11.611Z,100786.81
2023-04-04T13:50:43.466Z,100777.69
2023-04-04T13:53:11.292Z,100771.56
2023-04-04T13:55:43.947Z,100773.78
2023-04-04T13:58:20.494Z,100764.31
2023-04-04T14:00:49.008Z,100771.72
2023-04-04T14:03:17.910Z,100769.47
2023-04-04T14:05:45.141Z,100775.31
2023-04-04T14:08:12.184Z,100771.78
2023-04-04T14:10:39.116Z,100761.22
2023-04-04T14:13:06.257Z,100767.34
2023-04-04T14:15:33.860Z,100767.56
2023-04-04T14:18:00.837Z,100769.81
2023-04-04T14:20:27.892Z,100767.00
2023-04-04T14:22:54.889Z,100770.72
2023-04-04T14:25:22.387Z,100764.00
2023-04-04T14:27:49.560Z,100757.66
2023-04-04T14:30:16.691Z,100760.19
2023-04-04T14:32:43.853Z,100754.63
2023-04-04T14:35:12.763Z,100761.72
2023-04-04T14:37:39.625Z,100764.50
2023-04-04T14:40:07.379Z,100752.09
2023-04-04T14:42:34.296Z,100767.06
2023-04-04T14:45:05.004Z,100755.53
2023-04-04T14:47:31.916Z,100746.25
2023-04-04T14:49:59.059Z,100758.19
2023-04-04T14:52:26.138Z,100748.47
2023-04-04T14:54:53.039Z,100749.94
2023-04-04T14:57:20.164Z,100741.88
2023-04-04T14:59:48.046Z,100747.88
2023-04-04T15:02:14.999Z,100761.28
2023-04-04T15:04:42.842Z,100753.81
2023-04-04T15:07:09.960Z,100745.88
2023-04-04T15:09:36.952Z,100740.78
2023-04-04T15:12:04.047Z,100735.09
2023-04-04T15:14:31.313Z,100744.81
2023-04-04T15:16:58.448Z,100738.69
2023-04-04T15:19:25.536Z,100738.84
2023-04-04T15:21:53.277Z,100745.41
2023-04-04T15:24:20.308Z,100745.06
2023-04-04T15:26:47.237Z,100742.22
2023-04-04T15:29:15.635Z,100725.63
2023-04-04T15:31:42.875Z,100730.66
2023-04-04T15:34:09.850Z,100726.31
2023-04-04T15:36:36.776Z,100716.53
2023-04-04T15:39:03.875Z,100720.63
2023-04-04T15:41:31.206Z,100723.28
2023-04-04T15:43:58.674Z,100708.53
2023-04-04T15:46:25.830Z,100702.97
2023-04-04T15:48:52.920Z,100702.25
2023-04-04T15:51:21.469Z,100704.75
2023-04-04T15:53:49.190Z,100705.63
2023-04-04T15:56:16.150Z,100702.28
2023-04-04T15:58:43.182Z,100702.34
2023-04-04T16:01:10.459Z,100705.44
2023-04-04T16:03:38.806Z,100701.78
2023-04-04T16:06:10.155Z,100698.38
2023-04-04T16:08:37.152Z,100691.72
2023-04-04T16:11:04.309Z,100703.22
2023-04-04T16:13:31.237Z,100705.00
2023-04-04T16:15:58.255Z,100696.16
2023-04-04T16:18:25.678Z,100694.91
2023-04-04T16:20:52.545Z,100708.28
2023-04-04T16:23:19.448Z,100694.81
2023-04-04T16:25:50.787Z,100695.91
2023-04-04T16:28:17.740Z,100702.44
2023-04-04T16:30:44.698Z,100702.97
2023-04-04T16:33:11.707Z,100695.38
2023-04-04T16:35:39.746Z,100687.91
2023-04-04T16:38:06.971Z,100686.56
2023-04-04T16:40:34.707Z,100688.22
2023-04-04T16:43:01.978Z,100680.78
2023-04-04T16:45:29.038Z,100688.94
2023-04-04T16:47:56.010Z,100693.13
2023-04-04T16:50:22.989Z,100690.59
2023-04-04T16:52:49.944Z,100687.31
2023-04-04T16:55:17.160Z,100702.06
2023-04-04T16:57:44.521Z,100698.03
2023-04-04T17:00:14.163Z,100711.66
2023-04-04T17:02:45.826Z,100701.78
2023-04-04T17:05:16.321Z,100708.97
2023-04-04T17:07:43.258Z,100712.03
2023-04-04T17:10:11.568Z,100713.22
2023-04-04T17:12:40.276Z,100712.28
2023-04-04T17:15:08.187Z,100728.66
2023-04-04T17:17:35.656Z,100727.47
2023-04-04T17:20:02.930Z,100717.34
2023-04-04T17:22:31.433Z,100720.06
2023-04-04T17:24:58.563Z,100722.88
2023-04-04T17:27:25.904Z,100713.06
2023-04-04T17:29:52.847Z,100716.03
2023-04-04T17:32:19.815Z,100712.25
2023-04-04T17:34:46.886Z,100725.56
2023-04-04T17:37:13.863Z,100723.78
2023-04-04T17:39:44.057Z,100728.03
2023-04-04T17:42:11.658Z,100720.16
2023-04-04T17:44:38.795Z,100728.84
2023-04-04T17:47:06.698Z,100724.25
2023-04-04T17:49:33.677Z,100732.06
2023-04-04T17:52:02.019Z,100717.91
2023-04-04T17:54:29.716Z,100722.63
2023-04-04T17:56:57.651Z,100728.38
2023-04-04T17:59:24.826Z,100722.34
2023-04-04T18:01:51.896Z,100720.09
2023-04-04T18:04:19.387Z,100728.84
2023-04-04T18:06:46.402Z,100716.94
2023-04-04T18:09:13.436Z,100718.81
2023-04-04T18:11:41.361Z,100719.66
2023-04-04T18:14:08.781Z,100722.72
2023-04-04T18:16:39.670Z,100721.16
2023-04-04T18:19:09.631Z,100729.41
2023-04-04T18:21:38.074Z,100729.88
2023-04-04T18:24:07.868Z,100729.13
2023-04-04T18:26:34.951Z,100729.44
2023-04-04T18:29:01.834Z,100738.19
2023-04-04T18:31:28.811Z,100734.03
2023-04-04T18:33:56.825Z,100730.94
2023-04-04T18:36:23.815Z,100736.09
2023-04-04T18:38:51.164Z,100746.22
2023-04-04T18:41:18.087Z,100739.84
2023-04-04T18:43:45.347Z,100744.75
2023-04-04T18:46:13.027Z,100748.31
2023-04-04T18:48:40.121Z,100757.31
2023-04-04T18:51:07.993Z,100762.31
2023-04-04T18:53:34.878Z,100764.56
2023-04-04T18:56:01.813Z,100764.69
2023-04-04T18:58:28.752Z,100760.31
2023-04-04T19:00:58.390Z,100766.34
2023-04-04T19:03:26.586Z,100771.53
2023-04-04T19:05:55.654Z,100770.47
2023-04-04T19:08:24.120Z,100783.34
2023-04-04T19:10:52.385Z,100784.97
2023-04-04T19:13:19.328Z,100786.84
2023-04-04T19:15:46.900Z,100797.19
2023-04-04T19:18:13.802Z,100795.75
2023-04-04T19:20:42.264Z,100799.69
2023-04-04T19:23:10.267Z,100801.34
2023-04-04T19:25:37.277Z,100805.28
2023-04-04T19:28:04.552Z,100818.47
2023-04-04T19:30:49.919Z,100826.13
2023-04-04T19:33:21.320Z,100823.78
2023-04-04T19:35:55.856Z,100843.59
2023-04-04T19:38:33.030Z,100860.22
2023-04-04T19:41:02.701Z,100876.00
2023-04-04T19:43:30.909Z,100877.13
2023-04-04T19:46:01.247Z,100884.88
2023-04-04T19:48:50.950Z,100888.28
2023-04-04T19:51:17.837Z,100895.81
2023-04-04T19:53:47.025Z,100900.16
2023-04-04T19:56:16.354Z,100913.78
2023-04-04T19:58:44.021Z,100909.91
2023-04-04T20:01:14.849Z,100909.38
2023-04-04T20:03:42.064Z,100919.47
2023-04-04T20:06:31.383Z,100924.41
2023-04-04T20:09:39.883Z,100933.81
2023-04-04T20:12:09.318Z,100937.81
2023-04-04T20:14:36.596Z,100936.84
2023-04-04T20:17:04.634Z,100933.16
2023-04-04T20:19:35.220Z,100939.00
2023-04-04T20:22:02.394Z,100945.97
2023-04-04T20:24:30.152Z,100948.94
2023-04-04T20:27:00.210Z,100959.97
2023-04-04T20:29:31.994Z,100954.75
2023-04-04T20:32:01.056Z,100951.28
2023-04-04T20:34:46.388Z,100950.53
2023-04-04T20:37:14.308Z,100954.22
2023-04-04T20:39:53.724Z,100967.81
2023-04-04T20:42:41.532Z,100967.31
2023-04-04T20:45:27.997Z,100970.97
2023-04-04T20:48:01.550Z,100969.47
2023-04-04T20:50:28.499Z,100980.25
2023-04-04T20:53:03.562Z,100979.84
2023-04-04T20:55:33.509Z,100982.06
2023-04-04T20:58:21.881Z,100982.41
2023-04-04T21:00:48.811Z,100977.03
2023-04-04T21:03:35.825Z,100981.00
2023-04-04T21:06:10.641Z,100982.91
2023-04-04T21:08:41.393Z,100981.06
2023-04-04T21:11:09.769Z,100982.56
2023-04-04T21:13:42.147Z,100982.81
2023-04-04T21:16:13.567Z,100979.97
2023-04-04T21:18:41.670Z,100976.00
2023-04-04T21:21:13.815Z,100978.97
2023-04-04T21:23:56.649Z,100985.69
2023-04-04T21:26:28.511Z,100978.25
2023-04-04T21:28:58.234Z,100974.16
2023-04-04T21:31:30.056Z,100981.81
2023-04-04T21:33:58.425Z,100983.38
2023-04-04T21:36:31.567Z,100976.69
2023-04-04T21:39:07.150Z,100969.31
2023-04-04T21:41:35.481Z,100968.88
2023-04-04T21:44:06.202Z,100975.16
2023-04-04T21:46:37.230Z,100974.88
2023-04-04T21:49:06.050Z,100979.41
2023-04-04T21:51:33.641Z,100984.41
2023-04-04T21:54:01.425Z,100984.59
2023-04-04T21:56:31.477Z,100982.78
2023-04-04T21:59:04.794Z,100989.16
2023-04-04T22:01:32.080Z,100986.75
2023-04-04T22:03:59.965Z,100987.88
2023-04-04T22:06:28.192Z,100986.66
2023-04-04T22:08:57.618Z,100984.84
2023-04-04T22:11:27.171Z,100990.19
2023-04-04T22:14:04.001Z,100993.75
2023-04-04T22:16:32.102Z,100995.94
2023-04-04T22:19:01.052Z,100997.97
2023-04-04T22:21:28.462Z,100997.69
2023-04-04T22:24:02.119Z,100997.72
2023-04-04T22:26:32.127Z,101004.28
2023-04-04T22:29:04.214Z,101003.31
2023-04-04T22:31:34.350Z,101004.88
2023-04-04T22:34:03.142Z,100994.19
2023-04-04T22:36:30.648Z,100997.44
2023-04-04T22:38:58.117Z,100992.56
2023-04-04T22:41:29.312Z,100996.13
2023-04-04T22:43:57.513Z,100991.97
2023-04-04T22:46:26.493Z,100989.16
2023-04-04T22:49:13.318Z,100992.50
2023-04-04T22:51:44.076Z,100984.34
2023-04-04T22:54:16.404Z,100988.09
2023-04-04T22:56:43.828Z,100982.94
2023-04-04T22:59:11.200Z,100998.91
2023-04-04T23:01:38.608Z,100991.09
2023-04-04T23:04:05.760Z,100993.25
2023-04-04T23:06:32.774Z,100992.00
2023-04-04T23:08:59.826Z,100992.16
2023-04-04T23:11:27.375Z,100993.53
2023-04-04T23:13:57.048Z,100991.03
2023-04-04T23:16:26.039Z,100990.97
2023-04-04T23:18:53.159Z,100986.19
2023-04-04T23:21:20.059Z,100978.00
2023-04-04T23:23:46.992Z,100981.59
2023-04-04T23:26:13.900Z,100976.94
2023-04-04T23:28:40.780Z,100992.75
2023-04-04T23:31:07.719Z,100993.59
2023-04-04T23:33:34.628Z,100996.84
2023-04-04T23:36:01.588Z,100999.59
2023-04-04T23:38:28.585Z,101012.31
2023-04-04T23:40:55.466Z,101009.09
2023-04-04T23:43:24.411Z,100991.31
2023-04-04T23:45:52.205Z,100990.94
2023-04-04T23:48:19.342Z,100993.59
2023-04-04T23:50:46.296Z,100992.09
2023-04-04T23:53:13.253Z,100978.94
2023-04-04T23:55:40.303Z,100972.25
2023-04-04T23:58:07.159Z,100970.09
